createdAt,value
2022-08-14T00:02:22.383Z,99.90
2022-08-14T00:04:51.512Z,99.90
2022-08-14T00:07:18.922Z,99.90
2022-08-14T00:10:02.024Z,99.90
2022-08-14T00:12:39.894Z,99.90
2022-08-14T00:15:26.063Z,99.90
2022-08-14T00:17:57.435Z,99.90
2022-08-14T00:20:35.987Z,99.90
2022-08-14T00:23:17.904Z,99.90
2022-08-14T00:26:06.289Z,99.90
2022-08-14T00:28:36.658Z,99.90
2022-08-14T00:31:06.637Z,99.90
2022-08-14T00:33:52.067Z,99.90
2022-08-14T00:36:37.588Z,99.90
2022-08-14T00:39:15.169Z,99.90
2022-08-14T00:41:48.773Z,99.90
2022-08-14T00:44:27.512Z,99.90
2022-08-14T00:47:10.668Z,99.90
2022-08-14T00:49:43.048Z,99.90
2022-08-14T00:52:18.316Z,99.90
2022-08-14T00:54:52.949Z,99.90
2022-08-14T00:57:37.924Z,99.90
2022-08-14T01:00:37.391Z,99.90
2022-08-14T01:03:08.785Z,99.90
2022-08-14T01:05:50.983Z,99.90
2022-08-14T01:08:51.414Z,99.90
2022-08-14T01:11:19.087Z,99.90
2022-08-14T01:13:50.779Z,99.90
2022-08-14T01:16:28.105Z,99.90
2022-08-14T01:19:19.779Z,99.90
2022-08-14T01:21:52.653Z,99.90
2022-08-14T01:24:30.588Z,99.90
2022-08-14T01:27:00.628Z,99.90
2022-08-14T01:29:58.287Z,99.90
2022-08-14T01:32:23.050Z,99.90
2022-08-14T01:35:20.263Z,99.90
2022-08-14T01:37:56.079Z,99.90
2022-08-14T01:40:37.197Z,99.90
2022-08-14T01:43:18.878Z,99.90
2022-08-14T01:46:05.977Z,99.90
2022-08-14T01:48:37.520Z,99.90
2022-08-14T01:51:19.297Z,99.90
2022-08-14T01:53:54.725Z,99.90
2022-08-14T01:56:31.066Z,99.90
2022-08-14T01:59:18.144Z,99.90
2022-08-14T02:01:58.473Z,99.90
2022-08-14T02:04:54.573Z,99.90
2022-08-14T02:07:34.318Z,99.90
2022-08-14T02:10:15.830Z,99.90
2022-08-14T02:12:53.998Z,99.90
2022-08-14T02:15:27.041Z,99.90
2022-08-14T02:18:04.645Z,99.90
2022-08-14T02:20:41.561Z,99.90
2022-08-14T02:23:09.148Z,99.90
2022-08-14T02:25:39.635Z,99.90
2022-08-14T02:28:25.937Z,99.90
2022-08-14T02:30:54.821Z,99.90
2022-08-14T02:33:25.338Z,99.90
2022-08-14T02:36:04.923Z,99.90
2022-08-14T02:38:35.124Z,99.90
2022-08-14T02:41:08.934Z,99.90
2022-08-14T02:43:46.490Z,99.90
2022-08-14T02:46:20.113Z,99.90
2022-08-14T02:49:02.006Z,99.90
2022-08-14T02:51:37.023Z,99.90
2022-08-14T02:54:09.816Z,99.90
2022-08-14T02:57:15.289Z,99.90
2022-08-14T02:59:34.455Z,99.90
2022-08-14T03:02:05.295Z,99.90
2022-08-14T03:04:32.553Z,99.90
2022-08-14T03:07:07.881Z,99.90
2022-08-14T03:10:24.649Z,99.90
2022-08-14T03:12:32.424Z,99.90
2022-08-14T03:15:14.195Z,99.90
2022-08-14T03:17:57.709Z,99.90
2022-08-14T03:20:29.463Z,99.90
2022-08-14T03:23:00.281Z,99.90
2022-08-14T03:25:38.930Z,99.90
2022-08-14T03:28:14.746Z,99.90
2022-08-14T03:31:08.426Z,99.90
2022-08-14T03:33:44.347Z,99.90
2022-08-14T03:37:51.074Z,99.90
2022-08-14T03:39:12.960Z,99.90
2022-08-14T03:41:59.917Z,99.90
2022-08-14T03:45:19.679Z,99.90
2022-08-14T03:47:20.065Z,99.90
2022-08-14T03:49:50.168Z,99.90
2022-08-14T03:52:37.668Z,99.90
2022-08-14T03:55:09.572Z,99.90
2022-08-14T03:57:37.277Z,99.90
2022-08-14T04:00:40.282Z,99.90
2022-08-14T04:03:02.755Z,99.90
2022-08-14T04:05:42.885Z,99.90
2022-08-14T04:08:30.157Z,99.90
2022-08-14T04:11:02.044Z,99.90
2022-08-14T04:13:35.732Z,99.90
2022-08-14T04:16:10.061Z,99.90
2022-08-14T04:18:42.465Z,99.90
2022-08-14T04:21:10.467Z,99.90
2022-08-14T04:23:39.764Z,99.90
2022-08-14T04:26:14.292Z,99.90
2022-08-14T04:29:07.516Z,99.90
2022-08-14T04:32:59.320Z,99.90
2022-08-14T04:34:20.794Z,99.90
2022-08-14T04:37:24.768Z,99.90
2022-08-14T04:40:15.255Z,99.90
2022-08-14T04:43:01.618Z,99.90
2022-08-14T04:45:41.656Z,99.90
2022-08-14T04:48:39.415Z,99.90
2022-08-14T04:51:11.394Z,99.90
2022-08-14T04:53:49.208Z,99.90
2022-08-14T04:56:30.944Z,99.90
2022-08-14T04:59:09.727Z,99.90
2022-08-14T05:01:47.946Z,99.90
2022-08-14T05:04:20.742Z,99.90
2022-08-14T05:06:54.176Z,99.90
2022-08-14T05:09:24.001Z,99.90
2022-08-14T05:11:56.621Z,99.90
2022-08-14T05:14:53.677Z,99.90
2022-08-14T05:17:32.121Z,99.90
2022-08-14T05:21:04.982Z,99.90
2022-08-14T05:23:01.377Z,99.90
2022-08-14T05:25:31.291Z,99.90
2022-08-14T05:28:12.386Z,99.90
2022-08-14T05:30:43.752Z,99.90
2022-08-14T05:33:13.029Z,99.90
2022-08-14T05:35:42.466Z,99.90
2022-08-14T05:38:30.628Z,99.90
2022-08-14T05:40:58.381Z,99.90
2022-08-14T05:43:25.286Z,99.90
2022-08-14T05:46:15.210Z,99.90
2022-08-14T05:48:53.609Z,99.90
2022-08-14T05:51:22.668Z,99.90
2022-08-14T05:54:00.323Z,99.90
2022-08-14T05:56:37.314Z,99.90
2022-08-14T05:59:05.577Z,99.90
2022-08-14T06:01:34.537Z,99.90
2022-08-14T06:04:05.651Z,99.90
2022-08-14T06:06:40.095Z,99.90
2022-08-14T06:09:09.794Z,99.90
2022-08-14T06:11:40.559Z,99.90
2022-08-14T06:14:21.379Z,99.90
2022-08-14T06:16:58.983Z,99.90
2022-08-14T06:19:26.645Z,99.90
2022-08-14T06:21:58.924Z,99.90
2022-08-14T06:24:27.285Z,99.90
2022-08-14T06:27:06.370Z,99.90
2022-08-14T06:29:37.701Z,99.90
2022-08-14T06:32:48.697Z,99.90
2022-08-14T06:35:03.457Z,99.90
2022-08-14T06:37:50.703Z,99.90
2022-08-14T06:40:27.760Z,99.90
2022-08-14T06:43:10.464Z,99.90
2022-08-14T06:45:44.144Z,99.90
2022-08-14T06:48:24.068Z,99.90
2022-08-14T06:50:55.232Z,99.90
2022-08-14T06:53:28.578Z,99.90
2022-08-14T06:56:00.890Z,99.90
2022-08-14T06:58:34.778Z,99.90
2022-08-14T07:01:27.622Z,99.90
2022-08-14T07:04:24.145Z,99.90
2022-08-14T07:06:59.089Z,99.90
2022-08-14T07:09:44.337Z,99.90
2022-08-14T07:12:54.556Z,99.90
2022-08-14T07:15:12.097Z,99.90
2022-08-14T07:17:52.094Z,99.90
2022-08-14T07:20:31.215Z,99.90
2022-08-14T07:23:09.296Z,99.90
2022-08-14T07:25:42.038Z,99.90
2022-08-14T07:28:43.590Z,99.90
2022-08-14T07:31:12.061Z,99.90
2022-08-14T07:33:50.409Z,99.90
2022-08-14T07:36:27.480Z,99.90
2022-08-14T07:39:03.309Z,99.90
2022-08-14T07:41:39.043Z,99.90
2022-08-14T07:44:29.489Z,99.90
2022-08-14T07:47:05.803Z,99.90
2022-08-14T07:49:34.485Z,99.90
2022-08-14T07:52:08.237Z,99.90
2022-08-14T07:54:35.589Z,99.90
2022-08-14T07:57:11.764Z,99.90
2022-08-14T07:59:44.696Z,99.90
2022-08-14T08:02:20.414Z,99.90
2022-08-14T08:04:59.196Z,99.90
2022-08-14T08:07:30.655Z,99.90
2022-08-14T08:10:01.201Z,99.90
2022-08-14T08:12:32.174Z,99.90
2022-08-14T08:15:14.758Z,99.90
2022-08-14T08:17:53.955Z,99.90
2022-08-14T08:20:29.322Z,99.90
2022-08-14T08:23:00.551Z,99.90
2022-08-14T08:25:39.771Z,99.90
2022-08-14T08:28:19.844Z,99.90
2022-08-14T08:30:56.778Z,99.90
2022-08-14T08:33:32.129Z,99.90
2022-08-14T08:36:12.688Z,99.90
2022-08-14T08:39:16.878Z,99.90
2022-08-14T08:41:49.426Z,99.90
2022-08-14T08:44:33.141Z,99.90
2022-08-14T08:47:06.549Z,99.90
2022-08-14T08:49:48.698Z,99.90
2022-08-14T08:52:30.932Z,99.90
2022-08-14T08:55:04.624Z,99.90
2022-08-14T08:57:36.067Z,99.90
2022-08-14T09:00:25.786Z,99.90
2022-08-14T09:03:01.765Z,99.90
2022-08-14T09:05:29.237Z,99.90
2022-08-14T09:08:30.615Z,99.90
2022-08-14T09:11:19.138Z,99.90
2022-08-14T09:13:53.080Z,99.90
2022-08-14T09:16:22.189Z,99.90
2022-08-14T09:18:50.573Z,99.90
2022-08-14T09:21:21.310Z,99.90
2022-08-14T09:24:26.276Z,99.90
2022-08-14T09:26:44.136Z,99.90
2022-08-14T09:29:23.747Z,99.90
2022-08-14T09:32:00.427Z,99.90
2022-08-14T09:35:16.509Z,99.90
2022-08-14T09:38:26.143Z,99.90
2022-08-14T09:41:15.274Z,99.90
2022-08-14T09:44:00.106Z,99.90
2022-08-14T09:46:34.654Z,99.90
2022-08-14T09:49:06.704Z,99.90
2022-08-14T09:51:45.141Z,99.90
2022-08-14T09:54:22.949Z,99.90
2022-08-14T09:56:57.411Z,99.90
2022-08-14T09:59:46.063Z,99.90
2022-08-14T10:02:35.270Z,99.90
2022-08-14T10:05:10.612Z,99.20
2022-08-14T10:07:53.769Z,98.30
2022-08-14T10:10:34.330Z,96.30
2022-08-14T10:13:03.188Z,96.80
2022-08-14T10:15:31.979Z,96.90
2022-08-14T10:18:18.252Z,96.70
2022-08-14T10:20:57.832Z,96.30
2022-08-14T10:23:30.019Z,95.80
2022-08-14T10:26:08.088Z,94.50
2022-08-14T10:29:17.658Z,93.50
2022-08-14T10:31:40.113Z,92.40
2022-08-14T10:34:14.336Z,91.00
2022-08-14T10:36:44.871Z,90.70
2022-08-14T10:39:27.864Z,90.60
2022-08-14T10:42:22.623Z,90.10
2022-08-14T10:44:52.311Z,90.30
2022-08-14T10:47:39.330Z,90.80
2022-08-14T10:50:15.538Z,91.50
2022-08-14T10:52:45.992Z,91.10
2022-08-14T10:55:21.003Z,91.40
2022-08-14T10:57:52.966Z,91.10
2022-08-14T11:00:30.072Z,91.00
2022-08-14T11:03:02.875Z,91.00
2022-08-14T11:05:45.396Z,90.40
2022-08-14T11:08:15.433Z,90.00
2022-08-14T11:10:50.367Z,88.80
2022-08-14T11:13:24.165Z,85.70
2022-08-14T11:15:52.572Z,84.80
2022-08-14T11:18:20.977Z,84.40
2022-08-14T11:21:01.994Z,84.00
2022-08-14T11:23:38.591Z,83.20
2022-08-14T11:26:08.107Z,82.80
2022-08-14T11:28:47.461Z,83.00
2022-08-14T11:31:22.447Z,83.20
2022-08-14T11:33:54.222Z,82.40
2022-08-14T11:36:35.475Z,80.10
2022-08-14T11:39:34.253Z,78.40
2022-08-14T11:42:58.456Z,77.80
2022-08-14T11:45:11.490Z,79.40
2022-08-14T11:48:12.760Z,80.10
2022-08-14T11:50:37.672Z,80.10
2022-08-14T11:55:48.022Z,76.00
2022-08-14T11:58:28.493Z,73.70
2022-08-14T12:01:02.976Z,70.60
2022-08-14T12:03:46.490Z,71.50
2022-08-14T12:06:28.644Z,71.50
2022-08-14T12:09:15.425Z,71.80
2022-08-14T12:11:47.363Z,70.60
2022-08-14T12:14:30.066Z,70.90
2022-08-14T12:17:12.331Z,71.80
2022-08-14T12:20:02.972Z,72.10
2022-08-14T12:22:43.584Z,72.00
2022-08-14T12:25:18.994Z,74.00
2022-08-14T12:27:53.389Z,73.00
2022-08-14T12:30:34.338Z,72.30
2022-08-14T12:33:08.773Z,71.40
2022-08-14T12:35:45.238Z,71.60
2022-08-14T12:38:21.014Z,71.40
2022-08-14T12:40:53.806Z,70.40
2022-08-14T12:43:23.248Z,69.70
2022-08-14T12:45:55.050Z,68.50
2022-08-14T12:48:32.304Z,67.60
2022-08-14T12:51:05.333Z,68.80
2022-08-14T12:53:38.457Z,66.70
2022-08-14T12:56:21.446Z,67.90
2022-08-14T12:58:59.284Z,66.80
2022-08-14T13:01:31.699Z,66.50
2022-08-14T13:04:18.818Z,67.00
2022-08-14T13:06:51.213Z,66.30
2022-08-14T13:09:19.058Z,66.80
2022-08-14T13:11:59.172Z,66.00
2022-08-14T13:14:48.052Z,63.90
2022-08-14T13:17:16.527Z,63.20
2022-08-14T13:19:45.718Z,61.80
2022-08-14T13:22:28.754Z,62.90
2022-08-14T13:24:56.401Z,64.30
2022-08-14T13:27:39.132Z,65.80
2022-08-14T13:30:21.422Z,65.60
2022-08-14T13:32:58.085Z,66.30
2022-08-14T13:35:25.724Z,66.40
2022-08-14T13:37:55.666Z,66.70
2022-08-14T13:40:26.503Z,67.00
2022-08-14T13:42:56.721Z,66.70
2022-08-14T13:45:33.867Z,66.40
2022-08-14T13:48:19.175Z,68.70
2022-08-14T13:51:01.926Z,68.00
2022-08-14T13:53:33.397Z,68.40
2022-08-14T13:56:02.217Z,68.40
2022-08-14T13:58:41.915Z,67.80
2022-08-14T14:01:17.105Z,66.80
2022-08-14T14:03:50.177Z,66.80
2022-08-14T14:06:19.057Z,67.40
2022-08-14T14:08:49.859Z,66.90
2022-08-14T14:11:24.421Z,68.10
2022-08-14T14:13:56.974Z,67.00
2022-08-14T14:16:31.289Z,67.00
2022-08-14T14:19:09.407Z,67.70
2022-08-14T14:21:55.717Z,68.00
2022-08-14T14:24:22.589Z,67.10
2022-08-14T14:26:50.523Z,67.30
2022-08-14T14:29:26.168Z,67.20
2022-08-14T14:31:58.996Z,67.60
2022-08-14T14:34:30.696Z,70.70
2022-08-14T14:37:04.556Z,73.30
2022-08-14T14:39:37.470Z,76.10
2022-08-14T14:42:06.483Z,77.90
2022-08-14T14:44:40.497Z,79.80
2022-08-14T14:47:12.761Z,80.80
2022-08-14T14:49:54.595Z,80.10
2022-08-14T14:52:27.014Z,80.00
2022-08-14T14:54:57.066Z,80.10
2022-08-14T14:57:30.318Z,80.10
2022-08-14T15:00:05.005Z,81.00
2022-08-14T15:02:36.524Z,80.60
2022-08-14T15:05:05.799Z,80.20
2022-08-14T15:07:35.321Z,78.70
2022-08-14T15:10:02.995Z,78.40
2022-08-14T15:12:55.558Z,73.20
2022-08-14T15:15:17.787Z,69.80
2022-08-14T15:17:49.375Z,65.80
2022-08-14T15:20:30.078Z,63.10
2022-08-14T15:23:12.258Z,59.80
2022-08-14T15:25:41.180Z,58.60
2022-08-14T15:28:11.621Z,57.00
2022-08-14T15:30:41.724Z,56.20
2022-08-14T15:33:09.495Z,54.40
2022-08-14T15:35:37.157Z,52.90
2022-08-14T15:38:12.066Z,52.20
2022-08-14T15:40:44.320Z,52.60
2022-08-14T15:43:19.056Z,51.40
2022-08-14T15:45:48.945Z,50.60
2022-08-14T15:48:22.645Z,49.30
2022-08-14T15:50:50.929Z,47.80
2022-08-14T15:53:19.105Z,47.90
2022-08-14T15:55:52.954Z,47.00
2022-08-14T15:58:23.463Z,46.30
2022-08-14T16:01:09.224Z,45.50
2022-08-14T16:03:40.951Z,45.80
2022-08-14T16:06:15.732Z,46.00
2022-08-14T16:08:58.935Z,46.30
2022-08-14T16:11:32.693Z,47.00
2022-08-14T16:14:00.924Z,46.90
2022-08-14T16:16:49.115Z,47.70
2022-08-14T16:19:19.476Z,48.30
2022-08-14T16:22:02.649Z,48.70
2022-08-14T16:24:59.966Z,48.70
2022-08-14T16:27:38.861Z,47.50
2022-08-14T16:30:20.635Z,48.20
2022-08-14T16:32:55.001Z,47.60
2022-08-14T16:35:26.259Z,47.00
2022-08-14T16:37:55.530Z,48.00
2022-08-14T16:43:04.733Z,48.30
2022-08-14T16:45:43.891Z,48.40
2022-08-14T16:48:57.124Z,48.30
2022-08-14T16:51:01.638Z,49.00
2022-08-14T16:53:36.763Z,49.00
2022-08-14T16:56:28.038Z,48.90
2022-08-14T16:59:16.984Z,49.20
2022-08-14T17:01:48.508Z,49.30
2022-08-14T17:04:24.837Z,50.40
2022-08-14T17:06:57.789Z,51.90
2022-08-14T17:09:36.800Z,54.10
2022-08-14T17:12:28.261Z,56.10
2022-08-14T17:15:25.219Z,57.30
2022-08-14T17:17:58.045Z,58.70
2022-08-14T17:20:53.376Z,59.20
2022-08-14T17:23:23.432Z,60.60
2022-08-14T17:25:57.025Z,61.90
2022-08-14T17:28:37.025Z,62.80
2022-08-14T17:31:12.174Z,63.20
2022-08-14T17:33:44.202Z,63.80
2022-08-14T17:36:24.644Z,64.80
2022-08-14T17:39:13.419Z,65.60
2022-08-14T17:42:01.729Z,66.20
2022-08-14T17:44:45.022Z,66.80
2022-08-14T17:47:14.654Z,67.50
2022-08-14T17:49:51.507Z,67.90
2022-08-14T17:52:34.643Z,68.80
2022-08-14T17:55:07.439Z,69.30
2022-08-14T17:57:41.249Z,69.70
2022-08-14T18:00:33.014Z,69.90
2022-08-14T18:03:02.200Z,70.10
2022-08-14T18:06:08.464Z,70.40
2022-08-14T18:08:33.587Z,71.00
2022-08-14T18:11:15.366Z,71.70
2022-08-14T18:13:51.622Z,72.40
2022-08-14T18:16:22.229Z,73.20
2022-08-14T18:18:51.174Z,73.70
2022-08-14T18:21:42.321Z,76.20
2022-08-14T18:24:20.265Z,77.10
2022-08-14T18:27:09.737Z,77.70
2022-08-14T18:29:43.692Z,78.90
2022-08-14T18:32:32.724Z,79.60
2022-08-14T18:35:00.200Z,81.00
2022-08-14T18:37:27.166Z,82.90
2022-08-14T18:40:03.181Z,84.10
2022-08-14T18:42:36.157Z,86.00
2022-08-14T18:45:12.503Z,88.20
2022-08-14T18:50:52.305Z,90.10
2022-08-14T18:53:40.787Z,90.60
2022-08-14T18:56:20.023Z,91.40
2022-08-14T18:58:57.140Z,92.30
2022-08-14T19:01:29.838Z,93.10
2022-08-14T19:03:58.742Z,94.20
2022-08-14T19:06:41.816Z,95.00
2022-08-14T19:09:50.574Z,96.10
2022-08-14T19:12:55.417Z,96.80
2022-08-14T19:15:44.630Z,97.40
2022-08-14T19:18:38.228Z,98.50
2022-08-14T19:21:22.361Z,99.20
2022-08-14T19:24:27.156Z,99.90
2022-08-14T19:27:37.475Z,99.90
2022-08-14T19:30:19.912Z,99.90
2022-08-14T19:32:51.003Z,99.90
2022-08-14T19:35:24.819Z,99.90
2022-08-14T19:38:32.270Z,99.90
2022-08-14T19:41:17.241Z,99.90
2022-08-14T19:43:55.484Z,99.90
2022-08-14T19:46:38.831Z,99.90
2022-08-14T19:49:21.321Z,99.90
2022-08-14T19:51:50.865Z,99.90
2022-08-14T19:54:18.723Z,99.90
2022-08-14T19:56:46.409Z,99.90
2022-08-14T19:59:19.590Z,99.90
2022-08-14T20:01:53.383Z,99.90
2022-08-14T20:04:46.839Z,99.90
2022-08-14T20:08:00.367Z,99.90
2022-08-14T20:11:12.292Z,99.90
2022-08-14T20:13:32.557Z,99.90
2022-08-14T20:16:11.977Z,99.90
2022-08-14T20:18:49.497Z,99.90
2022-08-14T20:21:20.612Z,99.90
2022-08-14T20:23:49.924Z,99.90
2022-08-14T20:26:30.979Z,99.90
2022-08-14T20:29:05.154Z,99.90
2022-08-14T20:31:37.004Z,99.90
2022-08-14T20:34:24.659Z,99.90
2022-08-14T20:37:19.810Z,99.90
2022-08-14T20:39:54.271Z,99.90
2022-08-14T20:42:43.598Z,99.90
2022-08-14T20:45:21.610Z,99.90
2022-08-14T20:48:01.866Z,99.90
2022-08-14T20:50:35.476Z,99.90
2022-08-14T20:53:24.475Z,99.90
2022-08-14T20:55:53.517Z,99.90
2022-08-14T20:58:42.227Z,99.90
2022-08-14T21:01:13.247Z,99.90
2022-08-14T21:03:57.917Z,99.90
2022-08-14T21:07:22.879Z,99.90
2022-08-14T21:10:04.643Z,99.90
2022-08-14T21:12:34.644Z,99.90
2022-08-14T21:15:11.051Z,99.90
2022-08-14T21:17:41.593Z,99.90
2022-08-14T21:20:25.870Z,99.90
2022-08-14T21:23:00.487Z,99.90
2022-08-14T21:25:32.126Z,99.90
2022-08-14T21:28:02.006Z,99.90
2022-08-14T21:30:46.498Z,99.90
2022-08-14T21:33:20.565Z,99.90
2022-08-14T21:35:50.103Z,99.90
2022-08-14T21:38:31.130Z,99.90
2022-08-14T21:41:43.085Z,99.90
2022-08-14T21:44:17.696Z,99.90
2022-08-14T21:46:53.422Z,99.90
2022-08-14T21:49:23.869Z,99.90
2022-08-14T21:51:58.934Z,99.90
2022-08-14T21:54:49.524Z,99.90
2022-08-14T21:57:17.482Z,99.90
2022-08-14T21:59:44.788Z,99.90
2022-08-14T22:02:33.515Z,99.90
2022-08-14T22:05:03.474Z,99.90
2022-08-14T22:07:39.773Z,99.90
2022-08-14T22:10:10.282Z,99.90
2022-08-14T22:12:45.272Z,99.90
2022-08-14T22:15:25.180Z,99.90
2022-08-14T22:17:54.625Z,99.90
2022-08-14T22:20:23.926Z,99.90
2022-08-14T22:22:55.976Z,99.90
2022-08-14T22:25:33.788Z,99.90
2022-08-14T22:28:04.407Z,99.90
2022-08-14T22:30:35.582Z,99.90
2022-08-14T22:33:05.748Z,99.90
2022-08-14T22:35:37.773Z,99.90
2022-08-14T22:38:37.820Z,99.90
2022-08-14T22:41:24.954Z,99.90
2022-08-14T22:43:45.587Z,99.90
2022-08-14T22:46:20.017Z,99.90
2022-08-14T22:48:49.275Z,99.90
2022-08-14T22:51:19.073Z,99.90
2022-08-14T22:53:48.923Z,99.90
2022-08-14T22:56:21.887Z,99.90
2022-08-14T22:58:53.656Z,99.90
2022-08-14T23:01:57.249Z,99.90
2022-08-14T23:04:35.519Z,99.90
2022-08-14T23:07:14.378Z,99.90
2022-08-14T23:10:31.139Z,99.90
2022-08-14T23:12:54.457Z,99.90
2022-08-14T23:15:29.985Z,99.90
2022-08-14T23:18:00.603Z,99.90
2022-08-14T23:20:32.189Z,99.90
2022-08-14T23:22:59.119Z,99.90
2022-08-14T23:25:44.591Z,99.90
2022-08-14T23:28:34.073Z,99.90
2022-08-14T23:31:10.911Z,99.90
2022-08-14T23:33:52.176Z,99.90
2022-08-14T23:36:28.445Z,99.90
2022-08-14T23:39:00.514Z,99.90
2022-08-14T23:41:46.346Z,99.90
2022-08-14T23:44:15.678Z,99.90
2022-08-14T23:46:46.128Z,99.90
2022-08-14T23:49:12.968Z,99.90
2022-08-14T23:51:43.249Z,99.90
2022-08-14T23:54:47.465Z,99.90
2022-08-14T23:57:00.193Z,99.90
2022-08-14T23:59:30.294Z,99.90
